Terminal Aerodrome Forecast
Issued by NWS Brownsville, TX

Home | Current Version | Previous Version | Text Only | Print | Product List | Glossary On
Versions: 1 2 3 4 5 6 7 8 9 10 11 12 13 14 15 16 17
510
FTUS44 KBRO 201129
TAFHRL
TAF
KHRL 201129Z 2012/2112 15006KT P6SM VCSH SCT025
      TEMPO 2012/2014 5SM BR BKN025
     FM201600 15015G22KT P6SM VCSH SCT035 BKN050
     FM210100 13012KT P6SM FEW050
     FM210600 15008KT P6SM SCT025=

USA.gov is the U.S. government's official web portal to all federal, state and local government web resources and services.